createdAt,value
2022-10-15T06:40:22.296Z,100195.34
2022-10-15T06:45:23.982Z,100204.63
2022-10-15T06:50:25.577Z,100207.63
2022-10-15T06:55:27.141Z,100215.66
2022-10-15T07:00:29.446Z,100209.22
2022-10-15T07:05:31.062Z,100215.22
2022-10-15T07:10:32.793Z,100212.84
2022-10-15T07:15:34.542Z,100219.44
2022-10-15T07:20:38.618Z,100222.13
2022-10-15T07:25:40.117Z,100227.31
2022-10-15T07:30:41.839Z,100223.41
2022-10-15T07:35:44.030Z,100219.13
2022-10-15T07:40:45.542Z,100224.66
2022-10-15T07:45:48.224Z,100220.75
2022-10-15T07:51:00.529Z,100213.72
2022-10-15T07:56:05.346Z,100216.50
2022-10-15T08:01:09.787Z,100216.47
2022-10-15T08:06:11.426Z,100200.69
2022-10-15T08:11:15.847Z,100194.59
2022-10-15T08:16:17.630Z,100197.00
2022-10-15T08:21:28.624Z,100193.66
2022-10-15T08:26:30.182Z,100183.06
2022-10-15T08:31:31.826Z,100181.41
2022-10-15T08:36:33.786Z,100185.09
2022-10-15T08:41:49.325Z,100184.22
2022-10-15T08:46:59.204Z,100187.84
2022-10-15T08:52:16.771Z,100174.66
2022-10-15T08:57:21.441Z,100173.31
2022-10-15T09:02:34.318Z,100173.13
2022-10-15T09:07:50.811Z,100173.13
2022-10-15T09:13:16.267Z,100168.88
2022-10-15T09:18:24.808Z,100168.66
2022-10-15T09:23:28.420Z,100164.31
2022-10-15T09:28:40.951Z,100167.44
2022-10-15T09:33:42.511Z,100169.53
2022-10-15T09:39:03.146Z,100168.34
2022-10-15T09:44:07.324Z,100173.38
2022-10-15T09:49:16.391Z,100170.56
2022-10-15T09:55:09.468Z,100158.00
2022-10-15T10:00:11.633Z,100158.31
2022-10-15T10:05:31.164Z,100151.25
2022-10-15T10:10:35.708Z,100140.34
2022-10-15T10:15:41.989Z,100136.00
2022-10-15T10:21:06.955Z,100126.94
2022-10-15T10:26:10.918Z,100137.53
2022-10-15T10:31:12.690Z,100138.78
2022-10-15T10:36:32.838Z,100135.72
2022-10-15T10:42:22.900Z,100134.94
2022-10-15T10:47:26.787Z,100123.41
2022-10-15T10:52:38.112Z,100123.63
2022-10-15T10:57:55.881Z,100112.81
2022-10-15T11:02:57.768Z,100112.75
2022-10-15T11:08:02.066Z,100115.94
2022-10-15T11:13:24.428Z,100113.00
2022-10-15T11:18:52.608Z,100105.34
2022-10-15T11:24:05.562Z,100102.13
2022-10-15T11:29:14.226Z,100092.25
2022-10-15T11:34:43.118Z,100095.22
2022-10-15T11:40:12.577Z,100088.84
2022-10-15T11:45:15.188Z,100088.06
2022-10-15T11:50:41.460Z,100086.94
2022-10-15T11:55:52.622Z,100090.69
2022-10-15T12:01:00.255Z,100085.88
2022-10-15T12:06:16.282Z,100085.13
2022-10-15T12:11:31.634Z,100079.25
2022-10-15T12:16:42.315Z,100069.63
2022-10-15T12:21:46.840Z,100067.53
2022-10-15T12:26:48.349Z,100071.53
2022-10-15T12:31:53.479Z,100052.81
2022-10-15T12:37:16.893Z,100053.03
2022-10-15T12:42:39.930Z,100059.97
2022-10-15T12:47:54.682Z,100041.88
2022-10-15T12:53:29.490Z,100052.81
2022-10-15T12:58:37.613Z,100045.44
2022-10-15T13:03:47.614Z,100041.19
2022-10-15T13:09:12.176Z,100045.22
2022-10-15T13:14:33.818Z,100029.63
2022-10-15T13:19:40.314Z,100043.72
2022-10-15T13:24:44.221Z,100033.25
2022-10-15T13:29:59.410Z,100044.13
2022-10-15T13:35:09.337Z,100042.44
2022-10-15T13:40:25.870Z,100048.13
2022-10-15T13:45:27.864Z,100040.56
2022-10-15T13:50:36.393Z,100049.72
2022-10-15T13:55:47.012Z,100046.56
2022-10-15T14:00:56.785Z,100047.13
2022-10-15T14:06:10.236Z,100048.53
2022-10-15T14:11:13.107Z,100056.22
2022-10-15T14:16:23.647Z,100041.00
2022-10-15T14:21:26.593Z,100040.44
2022-10-15T14:26:28.249Z,100033.69
2022-10-15T14:31:33.308Z,100038.63
2022-10-15T14:36:42.740Z,100045.81
2022-10-15T14:41:57.783Z,100039.75
2022-10-15T14:47:03.026Z,100048.38
2022-10-15T14:52:07.618Z,100052.19
2022-10-15T14:57:28.229Z,100040.53
2022-10-15T15:02:30.090Z,100065.84
2022-10-15T15:07:31.640Z,100057.88
2022-10-15T15:12:34.217Z,100061.34
2022-10-15T15:17:35.829Z,100056.88
2022-10-15T15:22:38.129Z,100067.00
2022-10-15T15:27:39.800Z,100072.06
2022-10-15T15:32:41.351Z,100086.97
2022-10-15T15:37:43.037Z,100116.47
2022-10-15T15:42:45.642Z,100134.13
2022-10-15T15:47:47.619Z,100153.88
2022-10-15T15:52:49.148Z,100144.34
2022-10-15T15:57:50.785Z,100166.78
2022-10-15T16:02:55.444Z,100161.22
2022-10-15T16:07:59.425Z,100177.28
2022-10-15T16:13:02.148Z,100183.69
2022-10-15T16:18:04.191Z,100182.66
2022-10-15T16:23:05.827Z,100177.75
2022-10-15T16:28:07.377Z,100190.09
2022-10-15T16:38:15.209Z,100195.03
2022-10-15T16:43:16.724Z,100206.59
2022-10-15T16:48:18.268Z,100211.94
2022-10-15T16:53:19.781Z,100219.66
2022-10-15T16:58:21.242Z,100240.09
2022-10-15T17:03:22.747Z,100253.88
2022-10-15T17:08:26.910Z,100259.75
2022-10-15T17:13:29.652Z,100286.84
2022-10-15T17:18:31.252Z,100295.00
2022-10-15T17:23:33.016Z,100309.03
2022-10-15T17:28:34.972Z,100325.94
2022-10-15T17:33:37.708Z,100321.75
2022-10-15T17:38:39.605Z,100338.16
2022-10-15T17:43:41.513Z,100349.88
2022-10-15T17:48:43.775Z,100363.28
2022-10-15T17:53:45.929Z,100367.41
2022-10-15T17:58:48.203Z,100369.72
2022-10-15T18:03:52.654Z,100370.75
2022-10-15T18:08:55.059Z,100367.34
2022-10-15T18:13:56.690Z,100378.22
2022-10-15T18:18:58.555Z,100390.13
2022-10-15T18:24:00.104Z,100383.22
2022-10-15T18:29:01.779Z,100389.81
2022-10-15T18:34:03.363Z,100387.63
2022-10-15T18:39:04.939Z,100384.19
2022-10-15T18:44:15.777Z,100394.19
2022-10-15T18:49:20.019Z,100386.25
2022-10-15T18:54:22.394Z,100401.41
2022-10-15T18:59:23.874Z,100405.44
2022-10-15T19:04:26.758Z,100396.78
2022-10-15T19:09:28.316Z,100391.13
2022-10-15T19:14:29.956Z,100387.75
2022-10-15T19:19:31.607Z,100399.59
2022-10-15T19:24:33.923Z,100404.44
2022-10-15T19:29:38.416Z,100417.06
2022-10-15T19:34:40.078Z,100408.91
2022-10-15T19:39:41.605Z,100403.19
2022-10-15T19:44:43.136Z,100399.34
2022-10-15T19:49:44.631Z,100418.63
2022-10-15T19:54:46.115Z,100419.78
2022-10-15T19:59:47.651Z,100422.13
2022-10-15T20:04:49.176Z,100426.41
2022-10-15T20:09:50.844Z,100425.47
2022-10-15T20:14:52.472Z,100436.66
2022-10-15T20:19:54.515Z,100437.84
2022-10-15T20:24:56.044Z,100444.16
2022-10-15T20:29:57.710Z,100439.50
2022-10-15T20:34:59.294Z,100455.28
2022-10-15T20:40:01.001Z,100473.75
2022-10-15T20:45:04.537Z,100479.81
2022-10-15T20:50:12.098Z,100492.78
2022-10-15T20:55:13.638Z,100505.34
2022-10-15T21:00:15.228Z,100520.81
2022-10-15T21:05:16.817Z,100523.34
2022-10-15T21:10:18.320Z,100533.16
2022-10-15T21:15:19.855Z,100533.34
2022-10-15T21:20:21.409Z,100539.13
2022-10-15T21:25:23.012Z,100538.44
2022-10-15T21:30:24.589Z,100546.19
2022-10-15T21:35:26.102Z,100531.72
2022-10-15T21:40:27.734Z,100519.47
2022-10-15T21:45:29.293Z,100525.59
2022-10-15T21:50:30.805Z,100522.00
2022-10-15T21:55:32.413Z,100532.94
2022-10-15T22:00:33.903Z,100536.41
2022-10-15T22:05:35.409Z,100543.38
2022-10-15T22:10:36.923Z,100546.06
2022-10-15T22:15:38.547Z,100538.69
2022-10-15T22:25:46.448Z,100532.94
2022-10-15T22:30:48.066Z,100527.50
2022-10-15T22:35:49.727Z,100530.38
2022-10-15T22:40:55.511Z,100535.66
2022-10-15T22:46:01.784Z,100544.66
2022-10-15T22:51:05.278Z,100546.09
2022-10-15T22:56:18.300Z,100550.44
2022-10-15T23:01:25.462Z,100561.66
2022-10-15T23:06:27.656Z,100561.19
2022-10-15T23:11:35.656Z,100566.44
2022-10-15T23:16:40.310Z,100568.75
2022-10-15T23:21:50.191Z,100565.78
2022-10-15T23:26:52.244Z,100574.97
2022-10-15T23:31:54.641Z,100565.84
2022-10-15T23:36:56.267Z,100563.72
2022-10-15T23:41:57.791Z,100573.31
2022-10-15T23:46:59.302Z,100560.19
2022-10-15T23:52:00.950Z,100557.53
2022-10-15T23:57:02.466Z,100553.00
